Time;durP1;ratioP1;P1;durP2;ratioP2;P2;SDS_P1;SDS_P2;PMS_P1;PMS_P2;Temp;Humidity;BMP_temperature;BMP_pressure;BME280_temperature;BME280_humidity;BME280_pressure;Samples;Min_cycle;Max_cycle;Signal;HPM_P1;HPM_P2
2022/01/07 00:01:03;;;;;;;9.10;4.93;;;-1.10;99.90;;;;;;4921253;29;20277;-84
2022/01/07 00:03:30;;;;;;;5.67;3.90;;;;;;;;;;4904333;29;20189;-85
2022/01/07 00:05:56;;;;;;;7.47;3.90;;;;;;;;;;4921198;29;20187;-85
2022/01/07 00:08:22;;;;;;;8.43;4.90;;;;;;;;;;4904039;29;20207;-85
2022/01/07 00:10:49;;;;;;;6.33;3.73;;;;;;;;;;4921131;29;20183;-86
2022/01/07 00:13:15;;;;;;;11.23;4.70;;;;;;;;;;4921511;29;20471;-85
2022/01/07 00:15:41;;;;;;;9.27;4.80;;;;;;;;;;4904154;29;20278;-85
2022/01/07 00:18:08;;;;;;;9.83;4.67;;;;;;;;;;4921202;29;20186;-86
2022/01/07 00:20:34;;;;;;;4.30;3.27;;;;;;;;;;4921376;29;20645;-86
2022/01/07 00:23:00;;;;;;;8.27;3.60;;;;;;;;;;4904596;29;20300;-87
2022/01/07 00:25:26;;;;;;;7.37;3.77;;;;;;;;;;4904394;29;20265;-87
2022/01/07 00:27:53;;;;;;;8.23;4.33;;;;;;;;;;4904591;29;20188;-87
2022/01/07 00:30:20;;;;;;;8.50;5.17;;;;;;;;;;4921960;29;20669;-87
2022/01/07 00:32:47;;;;;;;8.97;3.80;;;;;;;;;;4915542;29;20192;-93
2022/01/07 00:35:14;;;;;;;8.17;4.43;;;;;;;;;;4923587;29;20170;-86
2022/01/07 00:37:40;;;;;;;6.13;3.70;;;;;;;;;;4925907;29;20176;-86
2022/01/07 00:40:09;;;;;;;11.47;4.03;;;-1.40;99.90;;;;;;4927245;29;20232;-86
2022/01/07 00:42:35;;;;;;;5.80;3.43;;;;;;;;;;4941940;29;20251;-85
2022/01/07 00:45:01;;;;;;;6.77;3.70;;;;;;;;;;4926779;29;20206;-87
2022/01/07 00:47:27;;;;;;;4.30;2.97;;;;;;;;;;4941701;29;20171;-86
2022/01/07 00:49:53;;;;;;;4.60;3.13;;;;;;;;;;4943138;29;20197;-92
2022/01/07 00:52:19;;;;;;;8.80;2.77;;;;;;;;;;4942969;29;20198;-87
2022/01/07 00:54:45;;;;;;;4.03;2.63;;;;;;;;;;4942808;29;20189;-88
2022/01/07 00:57:11;;;;;;;4.97;3.20;;;;;;;;;;4942258;29;20185;-87
2022/01/07 00:59:39;;;;;;;5.53;3.00;;;;;;;;;;4927906;29;20287;-86
2022/01/07 01:02:05;;;;;;;7.70;3.40;;;;;;;;;;4923442;29;20191;-85
2022/01/07 01:04:31;;;;;;;6.77;2.73;;;;;;;;;;4922638;29;20183;-85
2022/01/07 01:06:57;;;;;;;7.53;4.20;;;;;;;;;;4907529;29;20220;-85
2022/01/07 01:09:23;;;;;;;6.10;3.10;;;;;;;;;;4923663;29;20195;-85
2022/01/07 01:11:49;;;;;;;6.17;3.90;;;;;;;;;;4924216;29;20187;-90
2022/01/07 01:14:15;;;;;;;4.37;2.70;;;;;;;;;;4925320;29;20198;-86
2022/01/07 01:16:41;;;;;;;6.93;3.10;;;;;;;;;;4924780;29;20191;-86
2022/01/07 01:19:07;;;;;;;4.60;2.77;;;;;;;;;;4905996;29;20689;-86
2022/01/07 01:21:35;;;;;;;9.90;3.60;;;;;;;;;;4923536;29;20199;-86
2022/01/07 01:24:01;;;;;;;11.20;4.33;;;;;;;;;;4906565;29;20186;-86
2022/01/07 01:26:27;;;;;;;8.00;4.07;;;;;;;;;;4906687;29;20256;-86
2022/01/07 01:28:53;;;;;;;8.43;3.40;;;;;;;;;;4890065;29;20228;-87
2022/01/07 01:31:20;;;;;;;4.43;2.67;;;;;;;;;;4903533;29;20237;-86
2022/01/07 01:33:46;;;;;;;4.20;2.90;;;;;;;;;;4902894;29;20191;-86
2022/01/07 01:36:14;;;;;;;10.77;3.50;;;;;;;;;;4886875;29;20189;-86
2022/01/07 01:38:40;;;;;;;6.33;3.27;;;;;;;;;;4902270;29;20226;-86
2022/01/07 01:41:07;;;;;;;9.40;3.50;;;;;;;;;;4919457;29;20185;-85
2022/01/07 01:43:33;;;;;;;4.23;2.87;;;;;;;;;;4902526;29;20187;-85
2022/01/07 01:45:59;;;;;;;6.97;4.13;;;;;;;;;;4901999;29;20630;-86
2022/01/07 01:48:25;;;;;;;2.80;2.17;;;;;;;;;;4901967;29;20194;-87
2022/01/07 01:50:51;;;;;;;5.20;3.47;;;;;;;;;;4902128;29;20215;-86
2022/01/07 01:53:18;;;;;;;5.07;3.40;;;;;;;;;;4901643;29;20194;-86
2022/01/07 01:55:44;;;;;;;5.00;2.93;;;;;;;;;;4918547;29;20196;-86
2022/01/07 01:58:11;;;;;;;4.40;2.77;;;;;;;;;;4892992;29;20252;-86
2022/01/07 02:00:37;;;;;;;2.37;1.80;;;;;;;;;;4923225;29;20193;-85
2022/01/07 02:03:03;;;;;;;6.77;3.13;;;;;;;;;;4940825;29;20189;-86
2022/01/07 02:05:29;;;;;;;5.93;2.93;;;;;;;;;;4961408;29;20234;-86
2022/01/07 02:07:55;;;;;;;4.53;2.83;;;;;;;;;;4944787;29;20200;-90
2022/01/07 02:10:21;;;;;;;9.10;3.57;;;;;;;;;;4937732;29;20186;-86
2022/01/07 02:12:47;;;;;;;5.50;2.77;;;;;;;;;;4920404;29;20190;-86
2022/01/07 02:15:14;;;;;;;8.23;3.07;;;;;;;;;;4936948;29;20232;-86
2022/01/07 02:17:45;;;;;;;5.53;2.43;;;-2.50;99.90;;;;;;4920248;29;20188;-86
2022/01/07 02:20:13;;;;;;;4.07;2.57;;;;;;;;;;4937101;29;20209;-87
2022/01/07 02:22:39;;;;;;;4.50;2.90;;;;;;;;;;4937487;29;20318;-87
2022/01/07 02:25:05;;;;;;;4.07;2.10;;;;;;;;;;4921394;29;20301;-87
2022/01/07 02:27:37;;;;;;;4.97;3.70;;;-2.50;99.90;;;;;;4921594;29;20190;-87
2022/01/07 02:30:06;;;;;;;6.07;3.10;;;-2.60;99.90;;;;;;4937463;29;20172;-87
2022/01/07 02:32:32;;;;;;;6.53;2.80;;;;;;;;;;4936737;29;20177;-86
2022/01/07 02:34:58;;;;;;;3.30;2.37;;;;;;;;;;4919833;29;20647;-89
2022/01/07 02:37:24;;;;;;;5.70;2.70;;;;;;;;;;4904293;29;20197;-87
2022/01/07 02:39:51;;;;;;;10.47;2.60;;;;;;;;;;4919820;29;20294;-87
2022/01/07 02:42:17;;;;;;;5.73;2.80;;;;;;;;;;4936980;29;20282;-87
2022/01/07 02:44:43;;;;;;;6.20;2.77;;;;;;;;;;4937406;29;20181;-87
2022/01/07 02:47:10;;;;;;;6.33;2.87;;;;;;;;;;4936917;29;20184;-88
2022/01/07 02:49:36;;;;;;;5.53;3.03;;;;;;;;;;4919913;29;20193;-87
2022/01/07 02:52:02;;;;;;;5.17;3.03;;;;;;;;;;4919735;29;20195;-88
2022/01/07 02:54:28;;;;;;;6.53;3.00;;;;;;;;;;4936863;29;20688;-87
2022/01/07 02:56:54;;;;;;;8.27;3.60;;;;;;;;;;4919813;29;20187;-88
2022/01/07 02:59:20;;;;;;;7.93;3.07;;;;;;;;;;4936957;29;20246;-87
2022/01/07 03:01:46;;;;;;;7.47;3.33;;;;;;;;;;4920400;29;20198;-87
2022/01/07 03:04:13;;;;;;;4.93;2.57;;;;;;;;;;4938109;29;20182;-87
2022/01/07 03:06:39;;;;;;;10.80;3.53;;;;;;;;;;4937639;29;20185;-87
2022/01/07 03:09:05;;;;;;;6.07;2.63;;;;;;;;;;4920063;29;20184;-87
2022/01/07 03:11:32;;;;;;;5.93;3.07;;;;;;;;;;4920438;29;20183;-88
2022/01/07 03:13:58;;;;;;;7.13;3.00;;;;;;;;;;4905454;29;20207;-87
2022/01/07 03:16:24;;;;;;;8.90;2.73;;;;;;;;;;4920809;29;20637;-87
2022/01/07 03:18:50;;;;;;;10.47;3.37;;;;;;;;;;4920020;29;20217;-86
2022/01/07 03:21:17;;;;;;;5.87;3.17;;;;;;;;;;4940134;29;20308;-87
2022/01/07 03:23:44;;;;;;;6.37;3.80;;;;;;;;;;4942131;29;20181;-88
2022/01/07 03:26:10;;;;;;;4.70;3.57;;;;;;;;;;4914069;29;20194;-88
2022/01/07 03:28:36;;;;;;;8.43;3.70;;;;;;;;;;4932788;29;20222;-87
2022/01/07 03:31:03;;;;;;;7.40;2.73;;;;;;;;;;4943631;29;20713;-86
2022/01/07 03:33:29;;;;;;;10.33;3.57;;;;;;;;;;4925680;29;20201;-85
2022/01/07 03:35:55;;;;;;;5.40;3.53;;;;;;;;;;4918078;29;20300;-85
2022/01/07 03:38:21;;;;;;;7.93;3.70;;;;;;;;;;4958316;29;20180;-86
2022/01/07 03:40:48;;;;;;;6.97;2.73;;;-3.10;99.90;;;;;;4941170;29;20180;-85
2022/01/07 03:43:14;;;;;;;5.50;2.97;;;;;;;;;;4953368;29;20198;-86
2022/01/07 03:45:41;;;;;;;6.13;2.97;;;;;;;;;;4927616;29;20212;-87
2022/01/07 03:48:07;;;;;;;8.83;3.50;;;;;;;;;;4925514;29;20713;-88
2022/01/07 03:50:33;;;;;;;6.97;2.97;;;;;;;;;;4943070;29;20271;-85
2022/01/07 03:53:00;;;;;;;6.30;3.80;;;;;;;;;;4925639;29;20192;-86
2022/01/07 03:55:29;;;;;;;5.90;2.97;;;-3.10;99.90;;;;;;4925659;29;20196;-87
2022/01/07 03:57:55;;;;;;;9.63;3.73;;;;;;;;;;4942766;29;20227;-86
2022/01/07 04:00:34;;;;;;;7.40;3.17;;;-3.20;99.90;;;;;;4925415;29;20666;-87
2022/01/07 04:03:02;;;;;;;7.23;3.43;;;-3.10;99.90;;;;;;4942699;29;20256;-87
2022/01/07 04:05:28;;;;;;;6.03;2.50;;;;;;;;;;4942012;29;20172;-85
2022/01/07 04:07:54;;;;;;;5.93;3.37;;;;;;;;;;4942279;29;20253;-86
2022/01/07 04:10:20;;;;;;;7.63;2.90;;;;;;;;;;4925602;29;20658;-85
2022/01/07 04:12:46;;;;;;;3.60;2.67;;;;;;;;;;4925354;29;20188;-88
2022/01/07 04:15:13;;;;;;;6.73;3.00;;;;;;;;;;4941703;29;20180;-87
2022/01/07 04:17:43;;;;;;;7.83;3.33;;;-3.10;99.90;;;;;;4909678;29;20254;-87
2022/01/07 04:20:10;;;;;;;9.20;2.87;;;;;;;;;;4925090;29;20208;-91
2022/01/07 04:22:36;;;;;;;5.57;2.80;;;;;;;;;;4925370;29;20190;-88
2022/01/07 04:25:06;;;;;;;9.20;4.17;;;-3.20;99.90;;;;;;4924885;29;20339;-88
2022/01/07 04:27:32;;;;;;;6.13;3.53;;;;;;;;;;4942080;29;20180;-88
2022/01/07 04:29:58;;;;;;;6.27;3.40;;;;;;;;;;4925524;29;20574;-89
2022/01/07 04:32:24;;;;;;;6.80;3.80;;;;;;;;;;4942008;29;20675;-89
2022/01/07 04:34:50;;;;;;;5.63;3.33;;;;;;;;;;4924949;29;20180;-89
2022/01/07 04:37:16;;;;;;;8.07;3.80;;;;;;;;;;4924688;29;20279;-88
2022/01/07 04:39:42;;;;;;;5.37;2.87;;;;;;;;;;4939693;29;20247;-88
2022/01/07 04:42:09;;;;;;;5.47;2.63;;;;;;;;;;4939593;29;20187;-87
2022/01/07 04:44:40;;;;;;;6.87;3.43;;;;;;;;;;4922112;29;20184;-87
2022/01/07 04:47:06;;;;;;;4.77;2.87;;;;;;;;;;4921972;29;20197;-88
2022/01/07 04:49:32;;;;;;;7.17;3.63;;;;;;;;;;4921823;29;20250;-89
2022/01/07 04:51:58;;;;;;;6.70;3.47;;;;;;;;;;4939412;29;20297;-89
2022/01/07 04:54:24;;;;;;;4.27;3.00;;;;;;;;;;4939134;29;20263;-89
2022/01/07 04:56:50;;;;;;;7.77;4.13;;;;;;;;;;4938559;29;20341;-89
2022/01/07 04:59:16;;;;;;;8.07;3.83;;;;;;;;;;4920847;29;20718;-89
2022/01/07 05:01:42;;;;;;;9.73;5.17;;;;;;;;;;4921522;29;20223;-89
2022/01/07 05:04:08;;;;;;;7.37;3.77;;;;;;;;;;4921433;29;20198;-90
2022/01/07 05:09:03;;;;;;;7.53;3.50;;;;;;;;;;4938554;29;20194;-90
2022/01/07 05:11:29;;;;;;;9.93;3.60;;;;;;;;;;4921393;29;20198;-90
2022/01/07 05:13:55;;;;;;;8.50;4.53;;;;;;;;;;4921543;29;20272;-89
2022/01/07 05:16:23;;;;;;;6.83;3.67;;;;;;;;;;4905385;29;20194;-90
2022/01/07 05:18:49;;;;;;;4.63;2.90;;;;;;;;;;4938764;29;20251;-89
2022/01/07 05:21:15;;;;;;;6.83;3.60;;;;;;;;;;4921525;29;20184;-90
2022/01/07 05:23:41;;;;;;;10.80;6.33;;;;;;;;;;4921547;29;20265;-90
2022/01/07 05:26:07;;;;;;;7.90;4.00;;;;;;;;;;4921959;29;20214;-89
2022/01/07 05:28:34;;;;;;;8.73;4.80;;;;;;;;;;4921408;29;20191;-89
2022/01/07 05:31:00;;;;;;;91.80;31.47;;;;;;;;;;4938382;29;20191;-90
2022/01/07 05:33:26;;;;;;;23.40;10.03;;;;;;;;;;4938113;29;20184;-90
2022/01/07 05:35:52;;;;;;;12.70;5.40;;;;;;;;;;4921145;29;20279;-89
2022/01/07 05:38:18;;;;;;;7.37;4.60;;;;;;;;;;4920825;29;20239;-89
2022/01/07 05:40:44;;;;;;;5.63;3.30;;;;;;;;;;4938211;29;20211;-90
2022/01/07 05:43:10;;;;;;;8.50;4.10;;;;;;;;;;4921306;29;20184;-90
2022/01/07 05:45:36;;;;;;;6.17;4.30;;;;;;;;;;4905226;29;20192;-88
2022/01/07 05:48:03;;;;;;;17.07;5.67;;;;;;;;;;4929107;29;20181;-88
2022/01/07 05:50:29;;;;;;;11.83;5.30;;;;;;;;;;4931262;29;20220;-88
2022/01/07 05:52:55;;;;;;;13.60;5.33;;;;;;;;;;4953193;29;20304;-88
2022/01/07 05:55:21;;;;;;;16.03;5.90;;;;;;;;;;4929230;29;20188;-87
2022/01/07 05:57:47;;;;;;;7.00;4.30;;;;;;;;;;4940565;29;20204;-88
2022/01/07 06:00:13;;;;;;;5.10;3.90;;;-3.90;99.90;;;;;;4937734;29;20216;-87
2022/01/07 06:02:40;;;;;;;10.77;4.47;;;-3.80;99.90;;;;;;4937384;29;20622;-88
2022/01/07 06:05:06;;;;;;;8.13;3.50;;;;;;;;;;4920437;29;20184;-88
2022/01/07 06:07:32;;;;;;;5.57;3.93;;;;;;;;;;4904889;29;20701;-88
2022/01/07 06:09:59;;;;;;;8.43;4.33;;;;;;;;;;4937884;29;20277;-88
2022/01/07 06:12:25;;;;;;;5.77;3.70;;;;;;;;;;4920288;29;20192;-86
2022/01/07 06:14:54;;;;;;;8.77;4.53;;;;;;;;;;4920555;29;20607;-87
2022/01/07 06:17:20;;;;;;;6.80;4.50;;;;;;;;;;4937834;29;20649;-91
2022/01/07 06:19:46;;;;;;;8.37;4.30;;;;;;;;;;4919847;29;20229;-89
2022/01/07 06:22:12;;;;;;;8.87;4.10;;;;;;;;;;4922372;29;20216;-91
2022/01/07 06:24:38;;;;;;;5.83;3.83;;;;;;;;;;4920433;29;20184;-84
2022/01/07 06:27:04;;;;;;;8.80;4.43;;;-3.90;99.90;;;;;;4920067;29;20192;-84
2022/01/07 06:29:31;;;;;;;9.63;3.93;;;;;;;;;;4937513;29;20184;-84
2022/01/07 06:31:57;;;;;;;8.73;4.87;;;;;;;;;;4919222;29;20192;-84
2022/01/07 06:34:23;;;;;;;8.43;5.23;;;;;;;;;;4914834;29;20188;-85
2022/01/07 06:36:49;;;;;;;11.30;4.70;;;;;;;;;;4917461;29;20279;-84
2022/01/07 06:39:18;;;;;;;10.90;5.00;;;-3.90;99.90;;;;;;4936540;29;20215;-84
2022/01/07 06:41:46;;;;;;;5.53;3.30;;;;;;;;;;4919968;29;20192;-84
2022/01/07 06:44:13;;;;;;;15.13;6.07;;;;;;;;;;4919253;29;20196;-85
2022/01/07 06:46:39;;;;;;;20.17;7.80;;;;;;;;;;4917018;29;20196;-85
2022/01/07 06:49:05;;;;;;;20.40;8.13;;;;;;;;;;4904180;29;20533;-83
2022/01/07 06:51:33;;;;;;;14.60;5.03;;;;;;;;;;4920116;29;20199;-84
2022/01/07 06:54:00;;;;;;;10.27;4.83;;;;;;;;;;4936759;29;20198;-83
2022/01/07 06:56:27;;;;;;;12.27;6.47;;;;;;;;;;4909479;29;20252;-83
2022/01/07 06:58:54;;;;;;;13.13;6.27;;;;;;;;;;4905740;29;20649;-84
2022/01/07 07:01:20;;;;;;;15.17;6.63;;;;;;;;;;4936382;29;20239;-83
2022/01/07 07:03:46;;;;;;;13.87;6.10;;;;;;;;;;4937899;29;20677;-83
2022/01/07 07:06:13;;;;;;;10.73;4.97;;;-3.80;99.90;;;;;;4930450;29;20191;-87
2022/01/07 07:08:39;;;;;;;18.03;6.40;;;;;;;;;;4901437;29;20735;-85
2022/01/07 07:11:06;;;;;;;11.77;5.63;;;;;;;;;;4915795;29;20187;-87
2022/01/07 07:13:32;;;;;;;14.73;6.43;;;;;;;;;;4939504;29;20188;-85
2022/01/07 07:16:01;;;;;;;12.07;5.13;;;;;;;;;;4908046;29;20630;-85
2022/01/07 07:18:27;;;;;;;10.70;3.73;;;;;;;;;;4922760;29;20196;-84
2022/01/07 07:20:53;;;;;;;10.23;4.87;;;;;;;;;;4894851;29;20188;-87
2022/01/07 07:23:20;;;;;;;13.23;5.40;;;;;;;;;;4936020;29;20184;-86
2022/01/07 07:25:46;;;;;;;10.57;6.00;;;;;;;;;;4936688;29;20180;-86
2022/01/07 07:28:12;;;;;;;16.23;5.77;;;;;;;;;;4920017;29;20192;-87
2022/01/07 07:30:41;;;;;;;13.63;5.67;;;;;;;;;;4910859;29;20536;-85
2022/01/07 07:33:32;;;;;;;21.10;6.63;;;;;;;;;;4925531;29;20682;-86
2022/01/07 07:38:40;;;;;;;18.57;7.77;;;;;;;;;;4922650;29;20231;-83
2022/01/07 07:41:07;;;;;;;14.93;7.53;;;;;;;;;;4925146;29;20198;-83
2022/01/07 07:43:34;;;;;;;13.77;6.27;;;-3.30;99.90;;;;;;4898102;29;20206;-83
2022/01/07 07:46:01;;;;;;;13.43;6.60;;;;;;;;;;4924588;29;20192;-84
2022/01/07 07:48:27;;;;;;;16.90;7.47;;;;;;;;;;4940630;29;20188;-83
2022/01/07 07:50:53;;;;;;;15.40;7.87;;;;;;;;;;4935773;29;20282;-82
2022/01/07 07:53:19;;;;;;;21.33;8.30;;;;;;;;;;4934594;29;20236;-84
2022/01/07 07:55:52;;;;;;;13.13;7.20;;;-3.00;99.90;;;;;;4922376;29;20211;-83
2022/01/07 07:58:18;;;;;;;16.60;6.07;;;;;;;;;;4919674;29;20221;-84
2022/01/07 08:00:44;;;;;;;9.00;5.17;;;;;;;;;;4924801;29;20192;-82
2022/01/07 08:03:10;;;;;;;21.73;8.50;;;;;;;;;;4915557;29;20199;-82
2022/01/07 08:05:36;;;;;;;27.50;8.17;;;;;;;;;;4921989;29;20198;-82
2022/01/07 08:08:02;;;;;;;17.90;7.13;;;;;;;;;;4938713;29;20651;-82
2022/01/07 08:10:29;;;;;;;13.10;7.60;;;-3.00;99.90;;;;;;4933345;29;20199;-82
2022/01/07 08:18:16;;;;;;;13.73;7.00;;;;;;;;;;4936535;29;20196;-82
2022/01/07 08:20:42;;;;;;;15.50;6.23;;;;;;;;;;4933596;29;20282;-83
2022/01/07 08:23:08;;;;;;;21.30;5.93;;;;;;;;;;4933599;29;20196;-83
2022/01/07 08:25:34;;;;;;;11.13;6.13;;;;;;;;;;4923741;29;20287;-81
2022/01/07 08:28:03;;;;;;;11.70;7.03;;;;;;;;;;4915226;29;20624;-80
2022/01/07 08:30:36;;;;;;;13.70;6.33;;;;;;;;;;4943030;29;20223;-81
2022/01/07 08:35:48;;;;;;;15.27;6.13;;;;;;;;;;4920958;29;20205;-81
2022/01/07 08:38:14;;;;;;;15.57;6.43;;;;;;;;;;4912630;29;20219;-81
2022/01/07 08:40:40;;;;;;;12.23;5.77;;;;;;;;;;4934209;29;20197;-81
2022/01/07 08:43:08;;;;;;;13.37;5.67;;;;;;;;;;4926867;29;20279;-82
2022/01/07 08:45:34;;;;;;;19.37;6.37;;;;;;;;;;4908360;29;20596;-80
2022/01/07 08:48:00;;;;;;;13.53;6.37;;;;;;;;;;4940346;29;20194;-82
2022/01/07 08:50:44;;;;;;;12.37;5.73;;;-2.10;99.90;;;;;;4909995;29;20206;-84
2022/01/07 08:53:11;;;;;;;12.80;7.00;;;-2.10;99.90;;;;;;4925377;29;20190;-82
2022/01/07 08:55:37;;;;;;;15.30;5.53;;;;;;;;;;4901906;29;20188;-82
2022/01/07 08:58:03;;;;;;;8.33;4.60;;;;;;;;;;4910919;29;20288;-83
2022/01/07 09:00:31;;;;;;;16.17;5.47;;;;;;;;;;4925914;29;20224;-85
2022/01/07 09:02:57;;;;;;;11.27;5.07;;;;;;;;;;4924555;29;20203;-83
2022/01/07 09:05:23;;;;;;;7.47;4.17;;;-2.20;99.90;;;;;;4935255;29;20199;-83
2022/01/07 09:07:49;;;;;;;16.30;4.47;;;;;;;;;;4894017;29;20216;-84
2022/01/07 09:10:15;;;;;;;10.33;4.80;;;;;;;;;;4909092;29;20192;-85
2022/01/07 09:12:41;;;;;;;14.00;6.30;;;;;;;;;;4921190;29;20184;-85
2022/01/07 09:15:09;;;;;;;11.60;5.03;;;-2.00;99.90;;;;;;4903830;29;20189;-86
2022/01/07 09:17:36;;;;;;;14.07;5.37;;;;;;;;;;4944777;29;20201;-85
2022/01/07 09:20:05;;;;;;;12.17;5.10;;;-1.80;99.90;;;;;;4942433;29;20222;-87
2022/01/07 09:22:32;;;;;;;13.07;5.70;;;;;;;;;;4922884;29;20211;-85
2022/01/07 09:24:58;;;;;;;6.93;3.33;;;;;;;;;;4919128;29;20192;-86
2022/01/07 09:27:24;;;;;;;11.70;5.10;;;;;;;;;;4891227;29;20247;-85
2022/01/07 09:29:50;;;;;;;14.10;6.30;;;;;;;;;;4925606;29;20200;-85
2022/01/07 09:32:16;;;;;;;15.70;5.67;;;;;;;;;;4923373;29;20275;-89
2022/01/07 09:34:49;;;;;;;13.83;5.93;;;;;;;;;;4910691;29;20190;-86
2022/01/07 09:37:16;;;;;;;14.97;6.20;;;;;;;;;;4939741;29;20289;-86
2022/01/07 09:39:42;;;;;;;13.53;5.13;;;;;;;;;;4944884;29;20213;-86
2022/01/07 09:42:08;;;;;;;17.97;7.30;;;-1.40;99.90;;;;;;4913606;29;20192;-87
2022/01/07 09:44:44;;;;;;;15.30;6.73;;;-1.40;99.90;;;;;;4950889;29;20184;-88
2022/01/07 09:47:13;;;;;;;12.07;5.93;;;;;;;;;;4945983;29;20186;-88
2022/01/07 09:49:42;;;;;;;9.67;3.70;;;;;;;;;;4935978;29;20210;-85
2022/01/07 09:52:18;;;;;;;10.43;4.57;;;;;;;;;;4947566;29;20208;-87
2022/01/07 09:54:44;;;;;;;8.10;4.70;;;;;;;;;;4936684;29;20195;-86
2022/01/07 09:57:29;;;;;;;8.77;5.07;;;;;;;;;;4913703;29;20246;-87
2022/01/07 09:59:55;;;;;;;13.17;5.80;;;;;;;;;;4919428;29;20223;-85
2022/01/07 10:02:23;;;;;;;12.80;5.20;;;;;;;;;;4912442;29;20184;-87
2022/01/07 10:04:50;;;;;;;9.83;4.83;;;;;;;;;;4916974;29;20224;-85
2022/01/07 10:07:17;;;;;;;9.77;5.13;;;;;;;;;;4919239;29;20191;-88
2022/01/07 10:09:56;;;;;;;12.70;5.67;;;;;;;;;;4921500;29;20196;-86
2022/01/07 10:12:22;;;;;;;12.40;5.80;;;;;;;;;;4911533;29;20203;-85
2022/01/07 10:15:08;;;;;;;13.20;4.07;;;;;;;;;;4910485;29;20193;-87
2022/01/07 10:17:37;;;;;;;9.80;4.47;;;;;;;;;;4919303;29;20274;-88
2022/01/07 10:20:06;;;;;;;10.90;4.67;;;;;;;;;;4912253;29;20697;-87
2022/01/07 10:22:51;;;;;;;9.27;4.43;;;;;;;;;;4906246;29;20622;-85
2022/01/07 10:25:23;;;;;;;8.20;4.07;;;;;;;;;;4928128;29;20220;-88
2022/01/07 10:27:49;;;;;;;11.70;4.70;;;;;;;;;;4923545;29;20215;-87
2022/01/07 10:30:26;;;;;;;12.33;4.73;;;;;;;;;;4922308;29;20199;-86
2022/01/07 10:32:55;;;;;;;8.67;4.63;;;-0.10;99.90;;;;;;4920632;29;20262;-88
2022/01/07 10:35:23;;;;;;;13.97;6.03;;;;;;;;;;4920097;29;20180;-88
2022/01/07 10:37:51;;;;;;;10.90;4.90;;;;;;;;;;4920028;29;20192;-88
2022/01/07 10:40:37;;;;;;;14.83;6.20;;;;;;;;;;4919713;29;20218;-87
2022/01/07 10:43:16;;;;;;;11.80;5.20;;;;;;;;;;4918998;29;20242;-86
2022/01/07 10:45:45;;;;;;;14.33;6.07;;;;;;;;;;4919284;29;20195;-87
2022/01/07 10:48:11;;;;;;;7.63;4.33;;;;;;;;;;4904022;29;20713;-86
2022/01/07 10:50:39;;;;;;;6.63;4.70;;;;;;;;;;4927669;29;20191;-87
2022/01/07 10:53:16;;;;;;;9.47;4.70;;;;;;;;;;4934144;29;20270;-86
2022/01/07 10:55:56;;;;;;;10.47;5.43;;;;;;;;;;4917738;29;20655;-85
2022/01/07 10:58:22;;;;;;;12.63;5.70;;;;;;;;;;4917434;29;20237;-85
2022/01/07 11:00:48;;;;;;;8.47;4.17;;;;;;;;;;4917684;29;20292;-86
2022/01/07 11:03:14;;;;;;;14.63;4.97;;;;;;;;;;4915623;29;20661;-86
2022/01/07 11:05:42;;;;;;;8.73;4.83;;;0.10;99.90;;;;;;4919897;29;20224;-87
2022/01/07 11:08:08;;;;;;;11.63;4.73;;;;;;;;;;4948786;29;20199;-83
2022/01/07 11:10:36;;;;;;;12.77;4.70;;;;;;;;;;4937108;29;20229;-84
2022/01/07 11:13:02;;;;;;;10.13;4.63;;;;;;;;;;4922905;29;20265;-85
2022/01/07 11:15:29;;;;;;;11.97;5.73;;;;;;;;;;4932736;29;20658;-89
2022/01/07 11:17:55;;;;;;;11.13;5.07;;;;;;;;;;4934541;29;20256;-83
2022/01/07 11:20:24;;;;;;;10.97;4.30;;;;;;;;;;4935560;29;20234;-84
2022/01/07 11:22:51;;;;;;;12.10;5.53;;;;;;;;;;4929177;29;20264;-86
2022/01/07 11:25:18;;;;;;;11.30;5.83;;;;;;;;;;4914445;29;20219;-84
2022/01/07 11:27:48;;;;;;;14.20;6.27;;;;;;;;;;4938216;29;20184;-82
2022/01/07 11:30:18;;;;;;;19.53;6.60;;;;;;;;;;4919310;29;20242;-84
2022/01/07 11:32:44;;;;;;;11.70;6.20;;;;;;;;;;4936688;29;20193;-83
2022/01/07 11:35:20;;;;;;;14.30;5.33;;;;;;;;;;4920234;29;20653;-83
2022/01/07 11:37:53;;;;;;;9.47;4.93;;;0.90;99.90;;;;;;4933559;29;20214;-85
2022/01/07 11:40:31;;;;;;;13.27;4.37;;;;;;;;;;4918218;29;20212;-82
2022/01/07 11:43:00;;;;;;;14.13;5.20;;;;;;;;;;4909784;29;20675;-84
2022/01/07 11:45:35;;;;;;;12.63;6.10;;;;;;;;;;4936396;29;20200;-84
2022/01/07 11:48:15;;;;;;;9.67;4.90;;;;;;;;;;4914110;29;20236;-85
2022/01/07 11:50:48;;;;;;;13.77;4.80;;;1.40;99.90;;;;;;4937525;29;20781;-84
2022/01/07 11:53:14;;;;;;;10.50;4.63;;;;;;;;;;4939907;29;20192;-84
2022/01/07 11:55:41;;;;;;;11.03;5.40;;;;;;;;;;4923094;29;20192;-85
2022/01/07 11:58:08;;;;;;;14.27;6.30;;;;;;;;;;4923477;29;20258;-84
2022/01/07 12:00:52;;;;;;;12.63;4.17;;;3.90;99.90;;;;;;4940493;29;20211;-84
2022/01/07 12:03:56;;;;;;;8.17;3.53;;;3.00;96.80;;;;;;4922995;29;20203;-85
2022/01/07 12:06:31;;;;;;;9.93;4.50;;;;;;;;;;4923576;29;20208;-84
2022/01/07 12:08:57;;;;;;;14.83;4.57;;;;;;;;;;4939822;29;20174;-84
2022/01/07 12:11:36;;;;;;;9.87;4.03;;;2.40;81.60;;;;;;4922758;29;20196;-87
2022/01/07 12:14:15;;;;;;;6.10;4.00;;;2.40;79.70;;;;;;4910334;29;20223;-85
2022/01/07 12:16:43;;;;;;;12.03;5.10;;;2.90;79.60;;;;;;4923736;29;20204;-86
2022/01/07 12:19:19;;;;;;;9.63;4.50;;;2.80;77.70;;;;;;4939981;29;20239;-87
2022/01/07 12:21:46;;;;;;;11.80;4.47;;;2.70;77.40;;;;;;4923272;29;20267;-86
2022/01/07 12:24:14;;;;;;;14.77;6.23;;;;;;;;;;4923176;29;20583;-92
2022/01/07 12:26:40;;;;;;;8.73;4.60;;;;;;;;;;4923183;29;20240;-85
2022/01/07 12:29:06;;;;;;;12.77;5.70;;;;;;;;;;4923056;29;20215;-86
2022/01/07 12:31:35;;;;;;;14.37;5.90;;;;;;;;;;4922971;29;20246;-85
2022/01/07 12:34:01;;;;;;;13.70;5.37;;;;;;;;;;4940039;29;20213;-87
2022/01/07 12:36:34;;;;;;;11.67;5.13;;;4.10;72.30;;;;;;4940042;29;20193;-86
2022/01/07 12:39:09;;;;;;;13.57;5.57;;;4.60;89.40;;;;;;4923172;29;20218;-87
2022/01/07 12:41:36;;;;;;;7.60;3.80;;;5.00;63.40;;;;;;4923035;29;20187;-87
2022/01/07 12:44:13;;;;;;;8.77;4.80;;;4.80;62.20;;;;;;4939665;29;20692;-87
2022/01/07 12:46:49;;;;;;;11.10;5.13;;;3.90;65.40;;;;;;4922684;29;20190;-87
2022/01/07 12:49:15;;;;;;;15.00;6.23;;;;;;;;;;4923526;29;20318;-85
2022/01/07 12:51:41;;;;;;;10.87;5.33;;;;;;;;;;4922860;29;20188;-88
2022/01/07 12:54:07;;;;;;;11.50;5.57;;;;;;;;;;4922791;29;20207;-87
2022/01/07 12:56:39;;;;;;;11.43;4.60;;;5.30;61.30;;;;;;4907799;29;20184;-87
2022/01/07 12:59:17;;;;;;;15.90;5.33;;;5.50;61.30;;;;;;4922825;29;20243;-88
2022/01/07 13:01:48;;;;;;;10.27;5.13;;;5.40;60.10;;;;;;4922565;29;20183;-87
2022/01/07 13:04:23;;;;;;;15.07;5.73;;;4.30;61.70;;;;;;4940495;29;20190;-86
2022/01/07 13:06:54;;;;;;;12.00;5.30;;;3.30;65.80;;;;;;4923877;29;20613;-86
2022/01/07 13:09:26;;;;;;;10.53;5.43;;;2.70;69.90;;;;;;4922977;29;20587;-88
2022/01/07 13:11:53;;;;;;;15.47;6.93;;;2.20;76.10;;;;;;4923388;29;20182;-87
2022/01/07 13:14:21;;;;;;;19.13;5.17;;;1.70;76.40;;;;;;4923219;29;20871;-87
2022/01/07 13:16:53;;;;;;;13.43;6.07;;;1.30;84.00;;;;;;4922800;29;20193;-87
2022/01/07 13:19:19;;;;;;;12.93;5.53;;;;;;;;;;4923009;29;20230;-88
2022/01/07 13:21:49;;;;;;;11.23;5.00;;;0.90;83.60;;;;;;4922571;29;20221;-86
2022/01/07 13:24:17;;;;;;;11.17;5.53;;;0.80;84.60;;;;;;4907081;29;20625;-87
2022/01/07 13:26:45;;;;;;;11.33;5.43;;;;;;;;;;4922709;29;20705;-86
2022/01/07 13:29:24;;;;;;;10.80;4.97;;;0.80;98.70;;;;;;4922227;29;20195;-87
2022/01/07 13:32:04;;;;;;;13.13;5.20;;;0.70;86.80;;;;;;4946604;29;20162;-87
2022/01/07 13:34:32;;;;;;;18.27;5.00;;;0.60;85.20;;;;;;4944763;29;20204;-86
2022/01/07 13:37:07;;;;;;;12.43;5.63;;;0.80;99.90;;;;;;4954135;29;20191;-87
2022/01/07 13:39:54;;;;;;;11.57;5.63;;;0.60;86.00;;;;;;4922897;29;20207;-90
2022/01/07 13:42:26;;;;;;;19.73;7.97;;;0.60;85.20;;;;;;4924359;29;20164;-88
2022/01/07 13:45:04;;;;;;;12.93;4.90;;;0.60;85.50;;;;;;4923739;29;20645;-87
2022/01/07 13:47:33;;;;;;;10.70;4.07;;;0.60;87.20;;;;;;4940074;29;20175;-88
2022/01/07 13:50:10;;;;;;;46.67;17.13;;;;;;;;;;4920625;29;20191;-86
2022/01/07 13:52:36;;;;;;;44.80;15.87;;;;;;;;;;4921602;29;20282;-86
2022/01/07 13:55:03;;;;;;;27.50;12.23;;;;;;;;;;4905744;29;20243;-88
2022/01/07 13:57:32;;;;;;;21.97;9.07;;;0.50;94.50;;;;;;4938390;29;20215;-89
2022/01/07 14:00:00;;;;;;;17.50;7.33;;;0.40;93.20;;;;;;4921260;29;20211;-87
2022/01/07 14:02:28;;;;;;;19.00;7.43;;;0.40;94.30;;;;;;4919908;29;20199;-89
2022/01/07 14:04:56;;;;;;;48.37;16.40;;;;;;;;;;4903312;29;20202;-86
2022/01/07 14:07:31;;;;;;;115.07;42.83;;;0.30;97.10;;;;;;4918431;29;20191;-86
2022/01/07 14:10:07;;;;;;;54.13;20.23;;;0.60;99.90;;;;;;4936806;29;20266;-84
2022/01/07 14:12:34;;;;;;;64.03;23.57;;;;;;;;;;4935400;29;20226;-86
2022/01/07 14:15:05;;;;;;;40.83;15.97;;;0.10;99.90;;;;;;4919086;29;20648;-87
2022/01/07 14:17:31;;;;;;;30.43;9.47;;;;;;;;;;4919076;29;20218;-85
2022/01/07 14:19:58;;;;;;;38.50;13.77;;;0.10;99.90;;;;;;4917718;29;20239;-85
2022/01/07 14:22:24;;;;;;;26.00;10.10;;;;;;;;;;4917869;29;20666;-86
2022/01/07 14:24:51;;;;;;;32.47;12.47;;;0.10;99.20;;;;;;4902437;29;20193;-86
2022/01/07 14:27:35;;;;;;;58.83;21.27;;;0.10;99.90;;;;;;4912464;29;20641;-86
2022/01/07 14:30:03;;;;;;;70.87;25.97;;;0.00;99.90;;;;;;4935674;29;20247;-85